sensor_id;sensor_type;location;lat;lon;timestamp;P1;durP1;ratioP1;P2;durP2;ratioP2
78985;SDS011;68384;55.750;48.746;2023-11-18T00:00:14;1.70;;;0.88;;
78985;SDS011;68384;55.750;48.746;2023-11-18T00:02:44;1.83;;;0.90;;
78985;SDS011;68384;55.750;48.746;2023-11-18T00:05:12;1.70;;;0.70;;
78985;SDS011;68384;55.750;48.746;2023-11-18T00:07:40;1.77;;;1.10;;
78985;SDS011;68384;55.750;48.746;2023-11-18T00:10:08;1.80;;;0.73;;
78985;SDS011;68384;55.750;48.746;2023-11-18T00:12:36;4.68;;;1.20;;
78985;SDS011;68384;55.750;48.746;2023-11-18T00:15:08;2.40;;;0.98;;
78985;SDS011;68384;55.750;48.746;2023-11-18T00:17:37;1.80;;;0.80;;
78985;SDS011;68384;55.750;48.746;2023-11-18T00:20:05;1.52;;;0.80;;
78985;SDS011;68384;55.750;48.746;2023-11-18T00:25:04;1.85;;;1.17;;
78985;SDS011;68384;55.750;48.746;2023-11-18T00:27:32;1.60;;;0.82;;
78985;SDS011;68384;55.750;48.746;2023-11-18T00:29:59;1.80;;;0.90;;
78985;SDS011;68384;55.750;48.746;2023-11-18T00:32:30;1.70;;;0.60;;
78985;SDS011;68384;55.750;48.746;2023-11-18T00:35:00;1.50;;;0.60;;
78985;SDS011;68384;55.750;48.746;2023-11-18T00:37:29;1.83;;;0.93;;
78985;SDS011;68384;55.750;48.746;2023-11-18T00:39:57;1.60;;;0.80;;
78985;SDS011;68384;55.750;48.746;2023-11-18T00:42:25;2.78;;;1.23;;
78985;SDS011;68384;55.750;48.746;2023-11-18T00:44:53;1.80;;;1.00;;
78985;SDS011;68384;55.750;48.746;2023-11-18T00:47:22;1.50;;;0.32;;
78985;SDS011;68384;55.750;48.746;2023-11-18T00:49:50;1.58;;;0.80;;
78985;SDS011;68384;55.750;48.746;2023-11-18T00:52:19;2.25;;;0.90;;
78985;SDS011;68384;55.750;48.746;2023-11-18T00:54:47;2.03;;;0.85;;
78985;SDS011;68384;55.750;48.746;2023-11-18T00:57:14;2.10;;;0.90;;
78985;SDS011;68384;55.750;48.746;2023-11-18T00:59:42;1.80;;;1.13;;
78985;SDS011;68384;55.750;48.746;2023-11-18T01:02:10;1.90;;;0.90;;
78985;SDS011;68384;55.750;48.746;2023-11-18T01:04:38;1.50;;;0.68;;
78985;SDS011;68384;55.750;48.746;2023-11-18T01:07:05;1.58;;;0.90;;
78985;SDS011;68384;55.750;48.746;2023-11-18T01:09:33;3.03;;;1.00;;
78985;SDS011;68384;55.750;48.746;2023-11-18T01:12:06;2.20;;;0.50;;
78985;SDS011;68384;55.750;48.746;2023-11-18T01:14:37;2.17;;;0.95;;
78985;SDS011;68384;55.750;48.746;2023-11-18T01:17:06;1.70;;;0.82;;
78985;SDS011;68384;55.750;48.746;2023-11-18T01:19:34;1.55;;;0.70;;
78985;SDS011;68384;55.750;48.746;2023-11-18T01:22:01;1.60;;;0.80;;
78985;SDS011;68384;55.750;48.746;2023-11-18T01:24:34;3.10;;;0.80;;
78985;SDS011;68384;55.750;48.746;2023-11-18T01:27:02;2.05;;;1.10;;
78985;SDS011;68384;55.750;48.746;2023-11-18T01:29:30;1.70;;;1.08;;
78985;SDS011;68384;55.750;48.746;2023-11-18T01:31:57;2.00;;;0.80;;
78985;SDS011;68384;55.750;48.746;2023-11-18T01:34:26;2.05;;;1.25;;
78985;SDS011;68384;55.750;48.746;2023-11-18T01:36:55;1.95;;;1.25;;
78985;SDS011;68384;55.750;48.746;2023-11-18T01:39:23;3.17;;;1.08;;
78985;SDS011;68384;55.750;48.746;2023-11-18T01:41:52;2.45;;;1.55;;
78985;SDS011;68384;55.750;48.746;2023-11-18T01:44:19;2.20;;;0.90;;
78985;SDS011;68384;55.750;48.746;2023-11-18T01:46:47;1.60;;;1.00;;
78985;SDS011;68384;55.750;48.746;2023-11-18T01:49:15;1.60;;;0.70;;
78985;SDS011;68384;55.750;48.746;2023-11-18T01:51:42;3.22;;;1.55;;
78985;SDS011;68384;55.750;48.746;2023-11-18T01:54:12;1.60;;;0.90;;
78985;SDS011;68384;55.750;48.746;2023-11-18T01:56:47;1.73;;;0.93;;
78985;SDS011;68384;55.750;48.746;2023-11-18T01:59:15;1.80;;;0.70;;
78985;SDS011;68384;55.750;48.746;2023-11-18T02:01:49;2.22;;;1.30;;
78985;SDS011;68384;55.750;48.746;2023-11-18T02:04:19;2.17;;;1.15;;
78985;SDS011;68384;55.750;48.746;2023-11-18T02:06:47;1.95;;;1.10;;
78985;SDS011;68384;55.750;48.746;2023-11-18T02:09:19;1.60;;;0.75;;
78985;SDS011;68384;55.750;48.746;2023-11-18T02:12:19;2.00;;;1.05;;
78985;SDS011;68384;55.750;48.746;2023-11-18T02:14:57;1.80;;;1.05;;
78985;SDS011;68384;55.750;48.746;2023-11-18T02:17:30;1.92;;;0.93;;
78985;SDS011;68384;55.750;48.746;2023-11-18T02:20:00;1.70;;;0.90;;
78985;SDS011;68384;55.750;48.746;2023-11-18T02:22:33;1.50;;;0.90;;
78985;SDS011;68384;55.750;48.746;2023-11-18T02:25:01;1.80;;;1.00;;
78985;SDS011;68384;55.750;48.746;2023-11-18T02:27:33;2.47;;;1.10;;
78985;SDS011;68384;55.750;48.746;2023-11-18T02:30:00;1.65;;;0.80;;
78985;SDS011;68384;55.750;48.746;2023-11-18T02:32:36;1.70;;;1.10;;
78985;SDS011;68384;55.750;48.746;2023-11-18T02:35:10;1.70;;;0.90;;
78985;SDS011;68384;55.750;48.746;2023-11-18T02:37:46;2.40;;;1.30;;
78985;SDS011;68384;55.750;48.746;2023-11-18T02:40:16;2.08;;;1.20;;
78985;SDS011;68384;55.750;48.746;2023-11-18T02:42:48;1.85;;;0.98;;
78985;SDS011;68384;55.750;48.746;2023-11-18T02:45:20;1.95;;;0.80;;
78985;SDS011;68384;55.750;48.746;2023-11-18T02:47:48;1.80;;;1.10;;
78985;SDS011;68384;55.750;48.746;2023-11-18T02:50:17;1.50;;;0.80;;
78985;SDS011;68384;55.750;48.746;2023-11-18T02:52:47;1.70;;;0.80;;
78985;SDS011;68384;55.750;48.746;2023-11-18T02:55:15;1.98;;;1.25;;
78985;SDS011;68384;55.750;48.746;2023-11-18T02:57:44;1.50;;;0.60;;
78985;SDS011;68384;55.750;48.746;2023-11-18T03:00:11;1.83;;;0.95;;
78985;SDS011;68384;55.750;48.746;2023-11-18T03:02:45;1.65;;;0.68;;
78985;SDS011;68384;55.750;48.746;2023-11-18T03:05:15;1.92;;;1.13;;
78985;SDS011;68384;55.750;48.746;2023-11-18T03:07:46;1.90;;;1.00;;
78985;SDS011;68384;55.750;48.746;2023-11-18T03:10:18;1.83;;;1.13;;
78985;SDS011;68384;55.750;48.746;2023-11-18T03:12:53;2.80;;;0.93;;
78985;SDS011;68384;55.750;48.746;2023-11-18T03:15:21;1.70;;;1.05;;
78985;SDS011;68384;55.750;48.746;2023-11-18T03:17:51;2.15;;;1.10;;
78985;SDS011;68384;55.750;48.746;2023-11-18T03:20:19;1.95;;;1.15;;
78985;SDS011;68384;55.750;48.746;2023-11-18T03:22:50;1.65;;;0.85;;
78985;SDS011;68384;55.750;48.746;2023-11-18T03:25:20;2.90;;;1.02;;
78985;SDS011;68384;55.750;48.746;2023-11-18T03:27:49;1.75;;;1.15;;
78985;SDS011;68384;55.750;48.746;2023-11-18T03:30:17;2.08;;;1.10;;
78985;SDS011;68384;55.750;48.746;2023-11-18T03:32:45;5.55;;;1.05;;
78985;SDS011;68384;55.750;48.746;2023-11-18T03:35:12;1.75;;;0.93;;
78985;SDS011;68384;55.750;48.746;2023-11-18T03:37:40;2.80;;;1.17;;
78985;SDS011;68384;55.750;48.746;2023-11-18T03:40:10;1.50;;;0.75;;
78985;SDS011;68384;55.750;48.746;2023-11-18T03:42:39;2.05;;;1.10;;
78985;SDS011;68384;55.750;48.746;2023-11-18T03:45:08;1.60;;;0.60;;
78985;SDS011;68384;55.750;48.746;2023-11-18T03:47:37;1.85;;;1.00;;
78985;SDS011;68384;55.750;48.746;2023-11-18T03:50:05;1.83;;;0.95;;
78985;SDS011;68384;55.750;48.746;2023-11-18T03:52:36;2.65;;;0.90;;
78985;SDS011;68384;55.750;48.746;2023-11-18T03:55:05;2.00;;;0.93;;
78985;SDS011;68384;55.750;48.746;2023-11-18T03:57:33;3.75;;;0.93;;
78985;SDS011;68384;55.750;48.746;2023-11-18T04:00:01;3.45;;;0.93;;
78985;SDS011;68384;55.750;48.746;2023-11-18T04:02:36;2.58;;;1.15;;
78985;SDS011;68384;55.750;48.746;2023-11-18T04:05:05;1.70;;;0.93;;
78985;SDS011;68384;55.750;48.746;2023-11-18T04:07:35;1.75;;;1.13;;
78985;SDS011;68384;55.750;48.746;2023-11-18T04:10:02;2.33;;;0.90;;
78985;SDS011;68384;55.750;48.746;2023-11-18T04:12:34;1.90;;;1.00;;
78985;SDS011;68384;55.750;48.746;2023-11-18T04:15:01;1.60;;;0.90;;
78985;SDS011;68384;55.750;48.746;2023-11-18T04:17:31;1.50;;;0.68;;
78985;SDS011;68384;55.750;48.746;2023-11-18T04:19:59;1.50;;;0.47;;
78985;SDS011;68384;55.750;48.746;2023-11-18T04:22:29;1.83;;;0.80;;
78985;SDS011;68384;55.750;48.746;2023-11-18T04:24:56;1.83;;;1.00;;
78985;SDS011;68384;55.750;48.746;2023-11-18T04:27:24;1.70;;;0.95;;
78985;SDS011;68384;55.750;48.746;2023-11-18T04:29:51;2.80;;;1.10;;
78985;SDS011;68384;55.750;48.746;2023-11-18T04:32:19;1.60;;;0.95;;
78985;SDS011;68384;55.750;48.746;2023-11-18T04:34:46;1.90;;;1.08;;
78985;SDS011;68384;55.750;48.746;2023-11-18T04:37:13;1.70;;;0.85;;
78985;SDS011;68384;55.750;48.746;2023-11-18T04:39:41;2.80;;;1.17;;
78985;SDS011;68384;55.750;48.746;2023-11-18T04:42:09;1.63;;;0.60;;
78985;SDS011;68384;55.750;48.746;2023-11-18T04:44:36;2.58;;;1.20;;
78985;SDS011;68384;55.750;48.746;2023-11-18T04:47:05;1.98;;;1.23;;
78985;SDS011;68384;55.750;48.746;2023-11-18T04:49:33;1.90;;;1.08;;
78985;SDS011;68384;55.750;48.746;2023-11-18T04:52:02;1.52;;;0.80;;
78985;SDS011;68384;55.750;48.746;2023-11-18T04:54:29;1.75;;;0.98;;
78985;SDS011;68384;55.750;48.746;2023-11-18T04:56:57;2.20;;;1.20;;
78985;SDS011;68384;55.750;48.746;2023-11-18T04:59:24;1.98;;;0.90;;
78985;SDS011;68384;55.750;48.746;2023-11-18T05:01:52;4.03;;;1.70;;
78985;SDS011;68384;55.750;48.746;2023-11-18T05:04:20;2.35;;;1.27;;
78985;SDS011;68384;55.750;48.746;2023-11-18T05:06:47;1.80;;;1.20;;
78985;SDS011;68384;55.750;48.746;2023-11-18T05:09:15;1.67;;;0.98;;
78985;SDS011;68384;55.750;48.746;2023-11-18T05:11:45;2.08;;;1.13;;
78985;SDS011;68384;55.750;48.746;2023-11-18T05:14:13;1.73;;;0.80;;
78985;SDS011;68384;55.750;48.746;2023-11-18T05:16:42;1.65;;;0.93;;
78985;SDS011;68384;55.750;48.746;2023-11-18T05:19:10;1.63;;;0.80;;
78985;SDS011;68384;55.750;48.746;2023-11-18T05:21:37;1.73;;;0.70;;
78985;SDS011;68384;55.750;48.746;2023-11-18T05:24:05;1.90;;;1.00;;
78985;SDS011;68384;55.750;48.746;2023-11-18T05:26:33;1.98;;;1.08;;
78985;SDS011;68384;55.750;48.746;2023-11-18T05:29:02;1.70;;;1.10;;
78985;SDS011;68384;55.750;48.746;2023-11-18T05:31:30;2.03;;;1.00;;
78985;SDS011;68384;55.750;48.746;2023-11-18T05:33:59;1.77;;;0.98;;
78985;SDS011;68384;55.750;48.746;2023-11-18T05:36:27;2.03;;;1.20;;
78985;SDS011;68384;55.750;48.746;2023-11-18T05:38:55;1.50;;;0.88;;
78985;SDS011;68384;55.750;48.746;2023-11-18T05:41:22;3.05;;;1.10;;
78985;SDS011;68384;55.750;48.746;2023-11-18T05:43:58;1.52;;;0.95;;
78985;SDS011;68384;55.750;48.746;2023-11-18T05:46:26;4.28;;;1.10;;
78985;SDS011;68384;55.750;48.746;2023-11-18T05:48:57;1.80;;;1.17;;
78985;SDS011;68384;55.750;48.746;2023-11-18T05:51:29;1.63;;;0.93;;
78985;SDS011;68384;55.750;48.746;2023-11-18T05:53:56;2.60;;;1.50;;
78985;SDS011;68384;55.750;48.746;2023-11-18T05:56:24;2.10;;;1.38;;
78985;SDS011;68384;55.750;48.746;2023-11-18T05:58:53;1.88;;;1.17;;
78985;SDS011;68384;55.750;48.746;2023-11-18T06:01:22;1.90;;;1.13;;
78985;SDS011;68384;55.750;48.746;2023-11-18T06:03:50;2.55;;;1.20;;
78985;SDS011;68384;55.750;48.746;2023-11-18T06:06:18;2.70;;;1.50;;
78985;SDS011;68384;55.750;48.746;2023-11-18T06:08:50;1.90;;;1.17;;
78985;SDS011;68384;55.750;48.746;2023-11-18T06:11:19;1.85;;;1.23;;
78985;SDS011;68384;55.750;48.746;2023-11-18T06:13:48;2.10;;;1.27;;
78985;SDS011;68384;55.750;48.746;2023-11-18T06:16:18;1.70;;;1.05;;
78985;SDS011;68384;55.750;48.746;2023-11-18T06:18:55;1.70;;;1.00;;
78985;SDS011;68384;55.750;48.746;2023-11-18T06:21:24;3.47;;;1.42;;
78985;SDS011;68384;55.750;48.746;2023-11-18T06:23:58;1.85;;;1.23;;
78985;SDS011;68384;55.750;48.746;2023-11-18T06:26:27;2.80;;;1.20;;
78985;SDS011;68384;55.750;48.746;2023-11-18T06:28:56;1.70;;;1.17;;
78985;SDS011;68384;55.750;48.746;2023-11-18T06:31:24;1.90;;;1.30;;
78985;SDS011;68384;55.750;48.746;2023-11-18T06:33:52;2.00;;;1.20;;
78985;SDS011;68384;55.750;48.746;2023-11-18T06:36:20;1.73;;;0.90;;
78985;SDS011;68384;55.750;48.746;2023-11-18T06:38:51;1.85;;;0.90;;
78985;SDS011;68384;55.750;48.746;2023-11-18T06:41:21;2.55;;;1.23;;
78985;SDS011;68384;55.750;48.746;2023-11-18T06:44:04;1.85;;;0.95;;
78985;SDS011;68384;55.750;48.746;2023-11-18T06:46:40;2.67;;;1.40;;
78985;SDS011;68384;55.750;48.746;2023-11-18T06:49:09;1.83;;;1.20;;
78985;SDS011;68384;55.750;48.746;2023-11-18T06:51:42;1.80;;;1.08;;
78985;SDS011;68384;55.750;48.746;2023-11-18T06:54:10;2.13;;;1.23;;
78985;SDS011;68384;55.750;48.746;2023-11-18T06:56:41;1.80;;;1.17;;
78985;SDS011;68384;55.750;48.746;2023-11-18T06:59:11;2.58;;;1.50;;
78985;SDS011;68384;55.750;48.746;2023-11-18T07:01:42;2.30;;;1.13;;
78985;SDS011;68384;55.750;48.746;2023-11-18T07:04:12;1.65;;;0.95;;
78985;SDS011;68384;55.750;48.746;2023-11-18T07:06:42;2.90;;;1.35;;
78985;SDS011;68384;55.750;48.746;2023-11-18T07:09:11;3.22;;;1.70;;
78985;SDS011;68384;55.750;48.746;2023-11-18T07:11:48;2.60;;;1.85;;
78985;SDS011;68384;55.750;48.746;2023-11-18T07:14:18;2.15;;;1.50;;
78985;SDS011;68384;55.750;48.746;2023-11-18T07:16:46;2.58;;;1.38;;
78985;SDS011;68384;55.750;48.746;2023-11-18T07:19:15;2.20;;;1.60;;
78985;SDS011;68384;55.750;48.746;2023-11-18T07:21:49;2.45;;;1.70;;
78985;SDS011;68384;55.750;48.746;2023-11-18T07:24:18;2.50;;;1.50;;
78985;SDS011;68384;55.750;48.746;2023-11-18T07:26:48;2.25;;;1.20;;
78985;SDS011;68384;55.750;48.746;2023-11-18T07:29:18;5.57;;;1.33;;
78985;SDS011;68384;55.750;48.746;2023-11-18T07:31:46;2.17;;;1.40;;
78985;SDS011;68384;55.750;48.746;2023-11-18T07:34:14;3.83;;;2.03;;
78985;SDS011;68384;55.750;48.746;2023-11-18T07:36:44;2.85;;;1.70;;
78985;SDS011;68384;55.750;48.746;2023-11-18T07:39:14;2.80;;;2.00;;
78985;SDS011;68384;55.750;48.746;2023-11-18T07:41:52;3.20;;;2.03;;
78985;SDS011;68384;55.750;48.746;2023-11-18T07:44:27;3.95;;;1.80;;
78985;SDS011;68384;55.750;48.746;2023-11-18T07:46:56;2.50;;;1.48;;
78985;SDS011;68384;55.750;48.746;2023-11-18T07:49:24;2.05;;;1.25;;
78985;SDS011;68384;55.750;48.746;2023-11-18T07:51:53;3.25;;;1.88;;
78985;SDS011;68384;55.750;48.746;2023-11-18T07:54:21;2.42;;;1.58;;
78985;SDS011;68384;55.750;48.746;2023-11-18T07:56:50;3.70;;;2.10;;
78985;SDS011;68384;55.750;48.746;2023-11-18T07:59:17;4.55;;;2.40;;
78985;SDS011;68384;55.750;48.746;2023-11-18T08:01:45;3.80;;;2.50;;
78985;SDS011;68384;55.750;48.746;2023-11-18T08:04:15;3.15;;;2.28;;
78985;SDS011;68384;55.750;48.746;2023-11-18T08:06:44;4.15;;;2.13;;
78985;SDS011;68384;55.750;48.746;2023-11-18T08:09:12;2.63;;;2.13;;
78985;SDS011;68384;55.750;48.746;2023-11-18T08:11:43;2.75;;;1.88;;
78985;SDS011;68384;55.750;48.746;2023-11-18T08:14:12;4.22;;;1.50;;
78985;SDS011;68384;55.750;48.746;2023-11-18T08:16:40;2.35;;;1.33;;
78985;SDS011;68384;55.750;48.746;2023-11-18T08:19:09;3.63;;;2.17;;
78985;SDS011;68384;55.750;48.746;2023-11-18T08:21:37;4.28;;;2.10;;
78985;SDS011;68384;55.750;48.746;2023-11-18T08:24:08;2.72;;;1.50;;
78985;SDS011;68384;55.750;48.746;2023-11-18T08:26:35;8.40;;;2.05;;
78985;SDS011;68384;55.750;48.746;2023-11-18T08:29:03;3.35;;;1.52;;
78985;SDS011;68384;55.750;48.746;2023-11-18T08:31:31;3.60;;;1.90;;
78985;SDS011;68384;55.750;48.746;2023-11-18T08:34:00;4.00;;;1.83;;
78985;SDS011;68384;55.750;48.746;2023-11-18T08:36:28;3.80;;;1.40;;
78985;SDS011;68384;55.750;48.746;2023-11-18T08:39:02;2.03;;;1.50;;
78985;SDS011;68384;55.750;48.746;2023-11-18T08:41:30;2.42;;;1.63;;
78985;SDS011;68384;55.750;48.746;2023-11-18T08:43:58;3.20;;;1.90;;
78985;SDS011;68384;55.750;48.746;2023-11-18T08:46:44;3.15;;;2.38;;
78985;SDS011;68384;55.750;48.746;2023-11-18T08:49:12;2.58;;;1.63;;
78985;SDS011;68384;55.750;48.746;2023-11-18T08:51:40;3.63;;;2.22;;
78985;SDS011;68384;55.750;48.746;2023-11-18T08:54:10;5.57;;;1.80;;
78985;SDS011;68384;55.750;48.746;2023-11-18T08:56:54;2.05;;;1.30;;
78985;SDS011;68384;55.750;48.746;2023-11-18T08:59:22;4.25;;;1.65;;
78985;SDS011;68384;55.750;48.746;2023-11-18T09:01:52;2.28;;;1.35;;
78985;SDS011;68384;55.750;48.746;2023-11-18T09:04:24;2.42;;;1.60;;
78985;SDS011;68384;55.750;48.746;2023-11-18T09:06:52;2.50;;;1.75;;
78985;SDS011;68384;55.750;48.746;2023-11-18T09:09:21;3.22;;;1.73;;
78985;SDS011;68384;55.750;48.746;2023-11-18T09:11:56;5.88;;;2.20;;
78985;SDS011;68384;55.750;48.746;2023-11-18T09:14:26;6.28;;;2.00;;
78985;SDS011;68384;55.750;48.746;2023-11-18T09:16:54;3.10;;;1.27;;
78985;SDS011;68384;55.750;48.746;2023-11-18T09:19:23;2.85;;;2.15;;
78985;SDS011;68384;55.750;48.746;2023-11-18T09:21:51;5.05;;;2.53;;
78985;SDS011;68384;55.750;48.746;2023-11-18T09:24:18;2.88;;;2.08;;
78985;SDS011;68384;55.750;48.746;2023-11-18T09:26:48;2.40;;;1.38;;
78985;SDS011;68384;55.750;48.746;2023-11-18T09:29:17;4.18;;;2.20;;
78985;SDS011;68384;55.750;48.746;2023-11-18T09:31:52;2.78;;;1.65;;
78985;SDS011;68384;55.750;48.746;2023-11-18T09:34:20;5.32;;;2.25;;
78985;SDS011;68384;55.750;48.746;2023-11-18T09:36:55;3.40;;;2.17;;
78985;SDS011;68384;55.750;48.746;2023-11-18T09:39:23;6.80;;;2.70;;
78985;SDS011;68384;55.750;48.746;2023-11-18T09:41:56;5.40;;;2.38;;
78985;SDS011;68384;55.750;48.746;2023-11-18T09:44:24;4.65;;;2.17;;
78985;SDS011;68384;55.750;48.746;2023-11-18T09:46:55;2.80;;;1.48;;
78985;SDS011;68384;55.750;48.746;2023-11-18T09:49:32;3.95;;;1.73;;
78985;SDS011;68384;55.750;48.746;2023-11-18T09:52:07;9.75;;;2.80;;
78985;SDS011;68384;55.750;48.746;2023-11-18T09:57:32;7.53;;;2.38;;
78985;SDS011;68384;55.750;48.746;2023-11-18T10:00:08;5.20;;;2.40;;
78985;SDS011;68384;55.750;48.746;2023-11-18T10:02:49;7.00;;;2.55;;
78985;SDS011;68384;55.750;48.746;2023-11-18T10:05:21;4.38;;;2.15;;
78985;SDS011;68384;55.750;48.746;2023-11-18T10:07:54;6.82;;;2.80;;
78985;SDS011;68384;55.750;48.746;2023-11-18T10:10:22;8.95;;;3.38;;
78985;SDS011;68384;55.750;48.746;2023-11-18T10:12:50;7.70;;;3.78;;
78985;SDS011;68384;55.750;48.746;2023-11-18T10:15:25;11.88;;;4.75;;
78985;SDS011;68384;55.750;48.746;2023-11-18T10:17:54;10.32;;;4.07;;
78985;SDS011;68384;55.750;48.746;2023-11-18T10:25:50;5.47;;;2.85;;
78985;SDS011;68384;55.750;48.746;2023-11-18T10:28:28;2.67;;;1.55;;
78985;SDS011;68384;55.750;48.746;2023-11-18T10:31:01;5.70;;;2.53;;
78985;SDS011;68384;55.750;48.746;2023-11-18T10:33:37;3.55;;;2.00;;
78985;SDS011;68384;55.750;48.746;2023-11-18T10:36:20;6.95;;;2.78;;
78985;SDS011;68384;55.750;48.746;2023-11-18T10:38:52;5.07;;;2.33;;
78985;SDS011;68384;55.750;48.746;2023-11-18T10:44:07;3.83;;;1.70;;
78985;SDS011;68384;55.750;48.746;2023-11-18T10:46:52;2.42;;;1.20;;
78985;SDS011;68384;55.750;48.746;2023-11-18T10:49:21;2.97;;;1.92;;
78985;SDS011;68384;55.750;48.746;2023-11-18T10:51:51;3.03;;;1.23;;
78985;SDS011;68384;55.750;48.746;2023-11-18T10:54:19;4.53;;;1.88;;
78985;SDS011;68384;55.750;48.746;2023-11-18T10:56:47;3.38;;;1.75;;
78985;SDS011;68384;55.750;48.746;2023-11-18T10:59:16;5.30;;;1.77;;
78985;SDS011;68384;55.750;48.746;2023-11-18T11:01:45;6.20;;;1.15;;
78985;SDS011;68384;55.750;48.746;2023-11-18T11:04:17;2.22;;;1.45;;
78985;SDS011;68384;55.750;48.746;2023-11-18T11:06:48;5.57;;;1.90;;
78985;SDS011;68384;55.750;48.746;2023-11-18T11:09:21;2.85;;;1.70;;
78985;SDS011;68384;55.750;48.746;2023-11-18T11:11:57;2.92;;;1.88;;
78985;SDS011;68384;55.750;48.746;2023-11-18T11:14:34;5.07;;;2.58;;
78985;SDS011;68384;55.750;48.746;2023-11-18T11:22:41;2.05;;;1.60;;
78985;SDS011;68384;55.750;48.746;2023-11-18T11:28:15;2.97;;;1.67;;
78985;SDS011;68384;55.750;48.746;2023-11-18T11:31:03;4.43;;;2.10;;
78985;SDS011;68384;55.750;48.746;2023-11-18T11:33:43;3.97;;;2.30;;
78985;SDS011;68384;55.750;48.746;2023-11-18T11:36:22;3.15;;;2.13;;
78985;SDS011;68384;55.750;48.746;2023-11-18T11:38:59;3.95;;;2.20;;
78985;SDS011;68384;55.750;48.746;2023-11-18T11:41:28;5.80;;;2.47;;
78985;SDS011;68384;55.750;48.746;2023-11-18T11:44:02;5.30;;;2.08;;
78985;SDS011;68384;55.750;48.746;2023-11-18T11:46:34;6.65;;;2.63;;
78985;SDS011;68384;55.750;48.746;2023-11-18T11:51:46;8.25;;;2.70;;
78985;SDS011;68384;55.750;48.746;2023-11-18T11:54:27;3.03;;;1.88;;
78985;SDS011;68384;55.750;48.746;2023-11-18T11:57:04;4.43;;;2.00;;
78985;SDS011;68384;55.750;48.746;2023-11-18T11:59:53;5.95;;;3.03;;
78985;SDS011;68384;55.750;48.746;2023-11-18T12:02:24;4.88;;;1.90;;
78985;SDS011;68384;55.750;48.746;2023-11-18T12:04:57;4.38;;;2.70;;
78985;SDS011;68384;55.750;48.746;2023-11-18T12:07:40;5.05;;;2.75;;
78985;SDS011;68384;55.750;48.746;2023-11-18T12:10:08;13.23;;;2.15;;
78985;SDS011;68384;55.750;48.746;2023-11-18T12:12:48;7.93;;;3.88;;
78985;SDS011;68384;55.750;48.746;2023-11-18T12:15:16;4.20;;;2.55;;
78985;SDS011;68384;55.750;48.746;2023-11-18T12:18:22;3.20;;;2.17;;
78985;SDS011;68384;55.750;48.746;2023-11-18T12:20:51;3.92;;;2.33;;
78985;SDS011;68384;55.750;48.746;2023-11-18T12:23:23;5.55;;;3.13;;
78985;SDS011;68384;55.750;48.746;2023-11-18T12:25:53;11.95;;;4.07;;
78985;SDS011;68384;55.750;48.746;2023-11-18T12:28:29;12.20;;;4.82;;
78985;SDS011;68384;55.750;48.746;2023-11-18T12:31:03;9.90;;;3.53;;
78985;SDS011;68384;55.750;48.746;2023-11-18T12:43:22;4.20;;;2.40;;
78985;SDS011;68384;55.750;48.746;2023-11-18T12:48:28;7.32;;;2.80;;
78985;SDS011;68384;55.750;48.746;2023-11-18T12:50:59;3.92;;;2.50;;
78985;SDS011;68384;55.750;48.746;2023-11-18T12:53:27;6.00;;;3.05;;
78985;SDS011;68384;55.750;48.746;2023-11-18T12:55:58;8.20;;;3.17;;
78985;SDS011;68384;55.750;48.746;2023-11-18T12:58:27;10.18;;;3.33;;
78985;SDS011;68384;55.750;48.746;2023-11-18T13:01:01;7.45;;;2.72;;
78985;SDS011;68384;55.750;48.746;2023-11-18T13:03:29;4.68;;;2.72;;
78985;SDS011;68384;55.750;48.746;2023-11-18T13:05:57;12.10;;;3.20;;
78985;SDS011;68384;55.750;48.746;2023-11-18T13:08:26;8.80;;;3.03;;
78985;SDS011;68384;55.750;48.746;2023-11-18T13:10:54;5.75;;;2.95;;
78985;SDS011;68384;55.750;48.746;2023-11-18T13:13:22;6.03;;;2.08;;
78985;SDS011;68384;55.750;48.746;2023-11-18T13:15:50;3.28;;;1.90;;
78985;SDS011;68384;55.750;48.746;2023-11-18T13:18:23;4.57;;;2.25;;
78985;SDS011;68384;55.750;48.746;2023-11-18T13:20:55;5.30;;;3.00;;
78985;SDS011;68384;55.750;48.746;2023-11-18T13:23:25;5.00;;;2.38;;
78985;SDS011;68384;55.750;48.746;2023-11-18T13:25:56;3.85;;;2.00;;
78985;SDS011;68384;55.750;48.746;2023-11-18T13:28:29;2.55;;;1.73;;
78985;SDS011;68384;55.750;48.746;2023-11-18T13:30:57;3.25;;;2.08;;
78985;SDS011;68384;55.750;48.746;2023-11-18T13:33:25;5.32;;;2.60;;
78985;SDS011;68384;55.750;48.746;2023-11-18T13:36:17;4.47;;;2.00;;
78985;SDS011;68384;55.750;48.746;2023-11-18T13:38:47;5.53;;;2.08;;
78985;SDS011;68384;55.750;48.746;2023-11-18T13:41:30;3.17;;;1.75;;
78985;SDS011;68384;55.750;48.746;2023-11-18T13:43:59;5.10;;;2.58;;
78985;SDS011;68384;55.750;48.746;2023-11-18T13:46:27;2.90;;;1.83;;
78985;SDS011;68384;55.750;48.746;2023-11-18T13:48:56;3.83;;;1.95;;
78985;SDS011;68384;55.750;48.746;2023-11-18T13:51:27;3.55;;;2.10;;
78985;SDS011;68384;55.750;48.746;2023-11-18T13:53:55;3.85;;;2.40;;
78985;SDS011;68384;55.750;48.746;2023-11-18T13:56:23;3.55;;;2.20;;
78985;SDS011;68384;55.750;48.746;2023-11-18T13:58:55;3.63;;;1.65;;
78985;SDS011;68384;55.750;48.746;2023-11-18T14:01:23;3.03;;;1.85;;
78985;SDS011;68384;55.750;48.746;2023-11-18T14:03:51;3.40;;;2.03;;
78985;SDS011;68384;55.750;48.746;2023-11-18T14:06:21;3.75;;;2.10;;
78985;SDS011;68384;55.750;48.746;2023-11-18T14:08:50;2.75;;;1.90;;
78985;SDS011;68384;55.750;48.746;2023-11-18T14:11:17;6.63;;;2.08;;
78985;SDS011;68384;55.750;48.746;2023-11-18T14:13:44;5.20;;;2.20;;
78985;SDS011;68384;55.750;48.746;2023-11-18T14:16:13;2.90;;;1.75;;
78985;SDS011;68384;55.750;48.746;2023-11-18T14:18:44;2.85;;;1.40;;
78985;SDS011;68384;55.750;48.746;2023-11-18T14:21:11;5.45;;;2.38;;
78985;SDS011;68384;55.750;48.746;2023-11-18T14:23:42;6.25;;;2.10;;
78985;SDS011;68384;55.750;48.746;2023-11-18T14:26:09;3.97;;;1.83;;
78985;SDS011;68384;55.750;48.746;2023-11-18T14:28:37;2.10;;;1.30;;
78985;SDS011;68384;55.750;48.746;2023-11-18T14:31:05;4.53;;;2.20;;
78985;SDS011;68384;55.750;48.746;2023-11-18T14:33:35;6.68;;;2.30;;
78985;SDS011;68384;55.750;48.746;2023-11-18T14:36:02;3.25;;;2.13;;
78985;SDS011;68384;55.750;48.746;2023-11-18T14:38:34;5.97;;;2.45;;
78985;SDS011;68384;55.750;48.746;2023-11-18T14:41:01;4.35;;;2.45;;
78985;SDS011;68384;55.750;48.746;2023-11-18T14:43:30;4.30;;;2.08;;
78985;SDS011;68384;55.750;48.746;2023-11-18T14:45:59;6.95;;;2.67;;
78985;SDS011;68384;55.750;48.746;2023-11-18T14:48:27;3.70;;;2.15;;
78985;SDS011;68384;55.750;48.746;2023-11-18T14:50:55;8.25;;;2.75;;
78985;SDS011;68384;55.750;48.746;2023-11-18T14:53:24;4.88;;;2.10;;
78985;SDS011;68384;55.750;48.746;2023-11-18T14:55:54;3.47;;;2.13;;
78985;SDS011;68384;55.750;48.746;2023-11-18T14:58:21;6.65;;;2.58;;
78985;SDS011;68384;55.750;48.746;2023-11-18T15:00:49;10.98;;;2.55;;
78985;SDS011;68384;55.750;48.746;2023-11-18T15:03:17;3.47;;;2.20;;
78985;SDS011;68384;55.750;48.746;2023-11-18T15:05:45;5.43;;;3.10;;
78985;SDS011;68384;55.750;48.746;2023-11-18T15:08:14;5.45;;;1.88;;
78985;SDS011;68384;55.750;48.746;2023-11-18T15:10:43;4.70;;;2.30;;
78985;SDS011;68384;55.750;48.746;2023-11-18T15:13:12;4.18;;;2.15;;
78985;SDS011;68384;55.750;48.746;2023-11-18T15:18:15;4.45;;;1.85;;
78985;SDS011;68384;55.750;48.746;2023-11-18T15:20:46;8.35;;;2.95;;
78985;SDS011;68384;55.750;48.746;2023-11-18T15:23:15;4.88;;;2.20;;
78985;SDS011;68384;55.750;48.746;2023-11-18T15:25:50;7.07;;;2.80;;
78985;SDS011;68384;55.750;48.746;2023-11-18T15:28:18;5.40;;;3.00;;
78985;SDS011;68384;55.750;48.746;2023-11-18T15:30:47;12.20;;;2.40;;